Time;durP1;ratioP1;P1;durP2;ratioP2;P2;SDS_P1;SDS_P2;PMS_P1;PMS_P2;Temp;Humidity;BMP_temperature;BMP_pressure;BME280_temperature;BME280_humidity;BME280_pressure;Samples;Min_cycle;Max_cycle;Signal;HPM_P1;HPM_P2
2021/07/27 00:01:34;;;;;;;7.00;5.93;;;20.10;99.90;;;;;;4977581;28;20205;-68
2021/07/27 00:03:59;;;;;;;6.97;6.37;;;19.90;99.90;;;;;;4977978;28;20244;-69
2021/07/27 00:06:25;;;;;;;8.23;7.10;;;19.90;99.90;;;;;;4978024;28;20181;-68
2021/07/27 00:08:50;;;;;;;7.73;6.93;;;19.80;99.90;;;;;;4976738;28;20211;-68
2021/07/27 00:11:16;;;;;;;7.97;6.60;;;19.80;99.90;;;;;;4976990;28;20534;-68
2021/07/27 00:13:41;;;;;;;7.33;6.67;;;19.90;99.90;;;;;;4959318;28;20231;-69
2021/07/27 00:16:07;;;;;;;7.00;6.20;;;19.90;99.90;;;;;;4959307;28;20193;-68
2021/07/27 00:18:33;;;;;;;6.50;5.90;;;19.90;99.90;;;;;;4975780;28;20196;-69
2021/07/27 00:21:03;;;;;;;6.50;5.90;;;20.00;99.90;;;;;;4976347;28;20570;-69
2021/07/27 00:23:31;;;;;;;6.07;5.53;;;20.00;99.90;;;;;;4975572;28;20201;-69
2021/07/27 00:25:58;;;;;;;6.50;5.90;;;20.00;99.90;;;;;;4974913;28;20929;-68
2021/07/27 00:28:24;;;;;;;6.10;5.60;;;20.00;99.90;;;;;;4974878;28;20903;-68
2021/07/27 00:30:50;;;;;;;6.20;5.60;;;20.00;99.90;;;;;;4975470;28;20191;-68
2021/07/27 00:33:15;;;;;;;6.80;6.10;;;20.10;99.90;;;;;;4974964;28;20283;-68
2021/07/27 00:35:41;;;;;;;7.00;6.30;;;20.10;99.90;;;;;;4975229;28;20311;-68
2021/07/27 00:38:10;;;;;;;5.77;5.27;;;20.10;99.90;;;;;;4975149;28;20220;-68
2021/07/27 00:40:36;;;;;;;7.23;5.70;;;20.00;99.90;;;;;;4975645;28;20177;-68
2021/07/27 00:43:13;;;;;;;8.50;6.30;;;20.10;99.90;;;;;;4975166;28;20741;-69
2021/07/27 00:45:39;;;;;;;7.03;6.33;;;20.10;99.90;;;;;;4974994;28;20412;-68
2021/07/27 00:48:06;;;;;;;7.13;5.67;;;20.10;99.90;;;;;;4975327;28;20500;-68
2021/07/27 00:50:31;;;;;;;9.83;6.93;;;20.20;99.90;;;;;;4974961;28;20432;-68
2021/07/27 00:52:58;;;;;;;7.07;6.47;;;20.10;99.90;;;;;;4975342;28;20440;-68
2021/07/27 00:55:26;;;;;;;7.80;7.00;;;20.00;99.90;;;;;;4974863;28;20412;-68
2021/07/27 00:57:51;;;;;;;7.20;6.60;;;20.00;99.90;;;;;;4974838;28;20501;-69
2021/07/27 01:00:17;;;;;;;9.13;8.23;;;19.90;99.90;;;;;;4974474;28;20545;-69
2021/07/27 01:02:43;;;;;;;9.53;6.87;;;19.90;99.90;;;;;;4976060;28;20197;-69
2021/07/27 01:05:10;;;;;;;8.33;7.20;;;19.90;99.90;;;;;;4975316;28;20535;-69
2021/07/27 01:07:40;;;;;;;7.63;6.83;;;19.90;99.90;;;;;;4975541;28;21161;-69
2021/07/27 01:10:06;;;;;;;7.40;6.70;;;19.90;99.90;;;;;;4981037;28;20431;-69
2021/07/27 01:12:33;;;;;;;10.00;8.50;;;19.90;99.90;;;;;;4982715;28;20527;-69
2021/07/27 01:14:59;;;;;;;8.73;7.93;;;19.90;99.90;;;;;;4981055;28;20444;-69
2021/07/27 01:17:24;;;;;;;7.77;7.00;;;19.90;99.90;;;;;;4981009;28;20432;-69
2021/07/27 01:43:46;;;;;;;8.77;7.93;;;20.10;99.90;;;;;;4975051;28;20435;-69
2021/07/27 01:46:12;;;;;;;9.83;8.50;;;20.10;99.90;;;;;;4975035;28;20412;-69
2021/07/27 01:48:39;;;;;;;11.47;9.17;;;20.00;99.90;;;;;;4974319;28;20166;-69
2021/07/27 01:51:04;;;;;;;11.87;10.57;;;19.90;99.90;;;;;;4974903;28;20998;-69
2021/07/27 01:53:43;;;;;;;10.23;7.60;;;19.90;99.90;;;;;;4974424;28;20459;-69
2021/07/27 01:56:09;;;;;;;9.63;8.63;;;19.90;99.90;;;;;;4974388;28;20184;-69
2021/07/27 01:58:34;;;;;;;10.43;9.40;;;20.00;99.90;;;;;;4975070;28;20968;-69
2021/07/27 02:01:00;;;;;;;12.10;10.90;;;20.10;99.90;;;;;;4977061;28;20989;-69
2021/07/27 02:03:26;;;;;;;11.27;10.17;;;20.10;99.90;;;;;;4977825;28;20209;-69
2021/07/27 02:05:51;;;;;;;11.70;10.50;;;20.10;99.90;;;;;;4977527;28;20217;-69
2021/07/27 02:08:17;;;;;;;12.30;10.97;;;20.20;99.90;;;;;;4977306;28;20659;-69
2021/07/27 02:10:47;;;;;;;14.13;12.63;;;20.10;99.90;;;;;;4977776;28;20180;-69
2021/07/27 02:13:13;;;;;;;12.53;11.10;;;20.10;99.90;;;;;;4977618;28;20252;-69
2021/07/27 02:15:43;;;;;;;13.07;11.17;;;19.90;99.90;;;;;;4977097;28;20471;-69
2021/07/27 02:18:09;;;;;;;12.20;11.00;;;19.90;99.90;;;;;;4977401;28;20524;-69
2021/07/27 02:20:35;;;;;;;14.83;12.80;;;19.90;99.90;;;;;;4977320;28;20412;-69
2021/07/27 02:23:05;;;;;;;13.03;11.57;;;19.90;99.90;;;;;;4977257;28;20436;-69
2021/07/27 02:25:31;;;;;;;13.85;12.45;;;19.90;99.90;;;;;;4976324;28;20422;-69
2021/07/27 02:28:01;;;;;;;13.73;12.30;;;19.90;99.90;;;;;;4977172;28;20172;-69
2021/07/27 02:30:27;;;;;;;13.03;11.67;;;19.90;99.90;;;;;;4975805;28;20827;-70
2021/07/27 02:32:53;;;;;;;14.73;12.57;;;19.90;99.90;;;;;;4976970;28;20421;-69
2021/07/27 02:35:23;;;;;;;15.97;13.27;;;19.90;99.90;;;;;;4977002;28;20796;-69
2021/07/27 02:37:49;;;;;;;14.43;12.93;;;19.90;99.90;;;;;;4977122;28;20172;-69
2021/07/27 02:40:15;;;;;;;14.60;12.40;;;19.80;99.90;;;;;;4977477;28;20734;-69
2021/07/27 02:42:40;;;;;;;18.33;15.57;;;19.80;99.90;;;;;;4977030;28;20199;-69
2021/07/27 02:45:12;;;;;;;15.20;12.43;;;19.70;99.90;;;;;;4977079;28;20173;-69
2021/07/27 02:47:42;;;;;;;14.90;12.90;;;19.70;99.90;;;;;;4977262;28;20252;-69
2021/07/27 02:50:11;;;;;;;19.57;16.97;;;19.80;99.90;;;;;;4976815;28;20479;-69
2021/07/27 02:52:38;;;;;;;18.50;16.50;;;19.80;99.90;;;;;;4976630;28;20523;-69
2021/07/27 02:55:04;;;;;;;18.57;15.77;;;19.80;99.90;;;;;;4976552;28;20414;-69
2021/07/27 02:57:30;;;;;;;23.00;16.97;;;19.80;99.90;;;;;;4977003;28;20416;-69
2021/07/27 03:00:00;;;;;;;17.30;15.27;;;19.80;99.90;;;;;;4977171;28;20460;-69
2021/07/27 03:02:30;;;;;;;19.67;17.55;;;19.80;99.90;;;;;;4975634;28;20481;-70
2021/07/27 03:04:56;;;;;;;17.60;15.57;;;19.80;99.90;;;;;;4976698;28;20188;-69
2021/07/27 03:07:31;;;;;;;17.80;14.80;;;19.70;99.90;;;;;;4976745;28;20917;-69
2021/07/27 03:13:02;;;;;;;18.00;16.10;;;19.70;99.90;;;;;;4917029;29;20548;-69
2021/07/27 03:15:31;;;;;;;19.70;16.13;;;19.70;99.90;;;;;;4916844;29;20446;-69
2021/07/27 03:17:59;;;;;;;15.80;14.13;;;19.60;99.90;;;;;;4916739;29;20214;-69
2021/07/27 03:20:27;;;;;;;16.03;14.33;;;19.60;99.90;;;;;;4917069;29;20419;-69
2021/07/27 03:22:54;;;;;;;17.97;15.60;;;19.60;99.90;;;;;;4917036;29;20510;-69
2021/07/27 03:25:20;;;;;;;22.97;17.93;;;19.70;99.90;;;;;;4916605;29;20988;-69
2021/07/27 03:27:47;;;;;;;20.40;18.20;;;19.60;99.90;;;;;;4916007;29;20505;-69
2021/07/27 03:30:17;;;;;;;19.30;14.70;;;19.50;99.90;;;;;;4916839;29;20194;-69
2021/07/27 03:32:44;;;;;;;19.43;16.20;;;19.50;99.90;;;;;;4916456;29;20506;-70
2021/07/27 03:35:14;;;;;;;18.70;16.70;;;19.60;99.90;;;;;;4916467;29;20415;-69
2021/07/27 03:37:40;;;;;;;18.63;16.17;;;19.60;99.90;;;;;;4916864;29;20435;-69
2021/07/27 03:40:08;;;;;;;18.73;16.77;;;19.70;99.90;;;;;;4898893;29;21007;-69
2021/07/27 03:42:33;;;;;;;20.20;16.83;;;19.70;99.90;;;;;;4897614;29;20294;-69
2021/07/27 03:45:00;;;;;;;15.80;14.30;;;19.70;99.90;;;;;;4897845;29;20921;-69
2021/07/27 03:47:26;;;;;;;17.20;15.43;;;19.70;99.90;;;;;;4897547;29;20179;-70
2021/07/27 03:49:55;;;;;;;16.47;14.73;;;19.80;99.90;;;;;;4938872;29;20421;-69
2021/07/27 03:52:21;;;;;;;18.13;16.23;;;19.90;99.90;;;;;;4958288;28;20990;-69
2021/07/27 03:54:47;;;;;;;23.33;19.37;;;19.90;99.90;;;;;;4939552;29;20456;-69
2021/07/27 03:57:12;;;;;;;23.80;18.30;;;19.90;99.90;;;;;;4957005;28;20647;-69
2021/07/27 03:59:38;;;;;;;27.60;21.80;;;19.80;99.90;;;;;;4957074;29;20198;-69
2021/07/27 04:02:04;;;;;;;23.47;19.77;;;19.60;99.90;;;;;;4956820;28;20192;-69
2021/07/27 04:04:34;;;;;;;23.70;20.17;;;19.60;99.90;;;;;;4956232;28;20260;-69
2021/07/27 04:07:00;;;;;;;27.87;22.30;;;19.70;99.90;;;;;;4956555;29;20490;-69
2021/07/27 04:09:29;;;;;;;24.13;21.53;;;19.70;99.90;;;;;;4956504;29;20822;-69
2021/07/27 04:11:55;;;;;;;23.97;20.53;;;19.70;99.90;;;;;;4956771;28;20201;-69
2021/07/27 04:14:20;;;;;;;23.30;20.80;;;19.70;99.90;;;;;;4956593;29;20933;-69
2021/07/27 04:16:46;;;;;;;25.17;20.73;;;19.70;99.90;;;;;;4956173;28;20280;-70
2021/07/27 04:19:11;;;;;;;28.03;20.63;;;19.70;99.90;;;;;;4956175;28;20205;-69
2021/07/27 04:21:39;;;;;;;25.47;20.17;;;19.70;99.90;;;;;;4956141;28;20224;-69
2021/07/27 04:24:05;;;;;;;23.00;18.97;;;19.70;99.90;;;;;;4957681;28;20332;-69
2021/07/27 04:26:31;;;;;;;27.50;20.80;;;19.70;99.90;;;;;;4963878;28;20474;-69
2021/07/27 04:28:56;;;;;;;24.23;21.73;;;19.70;99.90;;;;;;4955694;29;20479;-69
2021/07/27 04:31:22;;;;;;;23.17;20.60;;;19.70;99.90;;;;;;4956054;28;20659;-69
2021/07/27 04:33:48;;;;;;;23.10;19.65;;;19.70;99.90;;;;;;4955949;28;20419;-69
2021/07/27 04:36:14;;;;;;;20.90;18.43;;;19.80;99.90;;;;;;4956112;29;20181;-69
2021/07/27 04:38:40;;;;;;;24.97;19.10;;;19.90;99.90;;;;;;4955658;28;20205;-69
2021/07/27 04:41:07;;;;;;;25.87;20.50;;;19.90;99.90;;;;;;4955689;29;20177;-69
2021/07/27 04:43:33;;;;;;;21.13;18.20;;;19.90;99.90;;;;;;4957117;28;20678;-68
2021/07/27 04:46:00;;;;;;;21.57;19.10;;;20.00;99.90;;;;;;4957040;28;20418;-68
2021/07/27 04:48:25;;;;;;;23.20;19.40;;;20.00;99.90;;;;;;4957358;29;20468;-68
2021/07/27 04:50:51;;;;;;;20.23;18.00;;;20.00;99.90;;;;;;4963646;28;20481;-69
2021/07/27 04:53:23;;;;;;;18.63;16.63;;;20.00;99.90;;;;;;4957425;28;20193;-68
2021/07/27 04:55:50;;;;;;;21.70;18.40;;;20.10;99.90;;;;;;4960814;28;20178;-68
2021/07/27 04:58:16;;;;;;;20.53;18.13;;;20.20;99.90;;;;;;4966116;29;20488;-68
2021/07/27 05:00:42;;;;;;;19.10;17.03;;;20.30;99.90;;;;;;4957179;29;20445;-68
2021/07/27 05:03:07;;;;;;;17.40;15.37;;;20.30;99.90;;;;;;4956429;28;20280;-68
2021/07/27 05:05:33;;;;;;;18.03;15.07;;;20.30;99.90;;;;;;4956232;28;20429;-68
2021/07/27 05:07:59;;;;;;;17.20;15.33;;;20.40;99.90;;;;;;4956785;29;20182;-68
2021/07/27 05:10:25;;;;;;;18.07;15.27;;;20.40;99.90;;;;;;4956582;28;20236;-68
2021/07/27 05:12:50;;;;;;;15.40;13.30;;;20.50;99.90;;;;;;4956398;28;20445;-68
2021/07/27 05:15:16;;;;;;;14.07;12.10;;;20.50;99.90;;;;;;4956157;28;20182;-69
2021/07/27 05:17:42;;;;;;;13.50;12.17;;;20.60;99.90;;;;;;4955800;28;20236;-68
2021/07/27 05:20:08;;;;;;;13.40;11.10;;;20.60;99.90;;;;;;4956952;29;20675;-68
2021/07/27 05:22:34;;;;;;;13.03;11.73;;;20.70;99.90;;;;;;4956045;28;20457;-68
2021/07/27 05:25:00;;;;;;;12.90;11.23;;;20.80;99.90;;;;;;4955581;29;20445;-68
2021/07/27 05:27:26;;;;;;;12.53;10.30;;;20.80;99.90;;;;;;4955769;29;20476;-68
2021/07/27 05:29:55;;;;;;;10.73;8.87;;;20.80;99.90;;;;;;4955366;29;20188;-68
2021/07/27 05:32:22;;;;;;;11.93;10.73;;;20.80;99.90;;;;;;4955674;28;20797;-68
2021/07/27 05:34:48;;;;;;;13.73;12.33;;;20.70;99.90;;;;;;4959308;28;20910;-68
2021/07/27 05:37:15;;;;;;;11.70;10.23;;;20.70;99.90;;;;;;4959425;28;20437;-68
2021/07/27 05:39:40;;;;;;;13.77;10.90;;;20.70;99.90;;;;;;4959460;29;20523;-69
2021/07/27 05:42:06;;;;;;;12.43;10.77;;;20.60;99.90;;;;;;4957851;28;20417;-68
2021/07/27 05:44:32;;;;;;;11.40;9.97;;;20.60;99.90;;;;;;4972823;28;20172;-68
2021/07/27 05:46:59;;;;;;;11.90;9.90;;;20.70;99.90;;;;;;4978651;28;20239;-68
2021/07/27 05:49:26;;;;;;;12.00;10.47;;;20.70;99.90;;;;;;4978696;28;20451;-68
2021/07/27 05:51:52;;;;;;;10.43;9.43;;;20.70;99.90;;;;;;4978504;28;20447;-68
2021/07/27 05:54:20;;;;;;;10.83;9.33;;;20.80;99.90;;;;;;4978537;28;20937;-68
2021/07/27 05:56:47;;;;;;;9.97;8.87;;;20.80;99.90;;;;;;4978969;28;20416;-68
2021/07/27 05:59:14;;;;;;;11.97;10.17;;;20.90;99.90;;;;;;4978882;28;20539;-68
2021/07/27 06:01:39;;;;;;;13.07;9.75;;;21.00;99.90;;;;;;4978259;28;20425;-68
2021/07/27 06:04:05;;;;;;;12.23;9.60;;;21.00;99.90;;;;;;4977731;28;20292;-69
2021/07/27 06:06:34;;;;;;;10.97;9.87;;;21.00;99.90;;;;;;4978987;28;20248;-68
2021/07/27 06:09:07;;;;;;;12.33;9.73;;;21.10;99.90;;;;;;4978262;28;20173;-68
2021/07/27 06:11:34;;;;;;;9.60;8.67;;;21.10;99.90;;;;;;4978207;28;20401;-68
2021/07/27 06:14:00;;;;;;;10.27;8.33;;;21.20;99.90;;;;;;4978636;28;20450;-68
2021/07/27 06:16:26;;;;;;;8.50;7.57;;;21.30;99.90;;;;;;4978514;28;20408;-68
2021/07/27 06:18:52;;;;;;;9.70;8.80;;;21.30;99.90;;;;;;4978285;28;20448;-68
2021/07/27 06:21:18;;;;;;;9.30;8.30;;;21.40;99.90;;;;;;4978112;28;20408;-69
2021/07/27 06:23:44;;;;;;;10.90;8.37;;;21.40;99.90;;;;;;4977404;28;20240;-69
2021/07/27 06:26:10;;;;;;;9.50;8.30;;;21.40;99.90;;;;;;4960748;28;20264;-69
2021/07/27 06:28:36;;;;;;;10.87;8.77;;;21.30;99.90;;;;;;4979253;28;20444;-68
2021/07/27 06:31:11;;;;;;;12.10;8.60;;;21.40;99.90;;;;;;4978344;28;20169;-70
2021/07/27 06:33:41;;;;;;;9.10;8.20;;;21.30;99.90;;;;;;4976161;28;20467;-70
2021/07/27 06:36:07;;;;;;;9.23;8.30;;;21.40;99.90;;;;;;4963127;28;20508;-69
2021/07/27 06:38:33;;;;;;;9.10;8.20;;;21.50;99.90;;;;;;4957886;28;21049;-69
2021/07/27 06:40:58;;;;;;;8.90;8.07;;;21.70;99.90;;;;;;4958927;28;20248;-71
2021/07/27 06:43:24;;;;;;;7.47;6.77;;;21.80;99.90;;;;;;4973278;28;20201;-71
2021/07/27 06:45:53;;;;;;;7.70;7.00;;;22.00;99.90;;;;;;4976978;28;20224;-69
2021/07/27 06:48:20;;;;;;;7.27;6.57;;;22.10;99.90;;;;;;4967761;28;20655;-71
2021/07/27 06:50:45;;;;;;;7.90;7.20;;;22.20;99.90;;;;;;4963673;28;20427;-69
2021/07/27 06:53:11;;;;;;;9.90;8.37;;;22.20;99.90;;;;;;4977290;28;20428;-69
2021/07/27 06:55:36;;;;;;;8.97;8.00;;;22.20;99.90;;;;;;4975563;28;20526;-70
2021/07/27 06:58:02;;;;;;;8.57;7.70;;;22.20;99.90;;;;;;4977518;28;20189;-70
2021/07/27 07:00:27;;;;;;;9.77;8.67;;;22.20;99.90;;;;;;4977570;28;20205;-69
2021/07/27 07:02:53;;;;;;;9.80;8.80;;;22.30;99.90;;;;;;4965008;28;20410;-70
2021/07/27 07:05:18;;;;;;;8.07;7.43;;;22.40;99.90;;;;;;4975485;28;20440;-69
2021/07/27 07:07:44;;;;;;;8.50;7.80;;;22.40;99.90;;;;;;4977821;28;20886;-69
2021/07/27 07:10:10;;;;;;;9.30;7.97;;;22.40;99.90;;;;;;4958076;28;20444;-69
2021/07/27 07:12:36;;;;;;;8.53;7.67;;;22.40;99.90;;;;;;4976144;28;20556;-70
2021/07/27 07:15:01;;;;;;;10.10;8.30;;;22.40;99.90;;;;;;4976777;28;20415;-70
2021/07/27 07:17:27;;;;;;;8.23;7.20;;;22.50;99.90;;;;;;4976798;28;20181;-70
2021/07/27 07:19:52;;;;;;;6.93;6.23;;;22.50;99.90;;;;;;4977210;28;20243;-70
2021/07/27 07:22:18;;;;;;;7.93;6.93;;;22.50;99.90;;;;;;4968110;28;20216;-69
2021/07/27 07:24:47;;;;;;;11.20;8.20;;;22.50;99.90;;;;;;4977219;28;20185;-69
2021/07/27 07:27:14;;;;;;;8.30;7.20;;;22.60;99.90;;;;;;4977772;28;20428;-69
2021/07/27 07:29:40;;;;;;;8.63;7.93;;;22.60;99.90;;;;;;4968567;28;20511;-70
2021/07/27 07:32:06;;;;;;;8.87;7.40;;;22.70;99.90;;;;;;4977438;28;20412;-69
2021/07/27 07:34:32;;;;;;;8.80;7.17;;;22.80;99.90;;;;;;4978536;28;20401;-69
2021/07/27 07:36:58;;;;;;;8.40;7.60;;;22.80;99.90;;;;;;4982417;28;20416;-69
2021/07/27 07:39:26;;;;;;;9.07;8.18;;;22.90;99.90;;;;;;4980790;28;20448;-69
2021/07/27 07:41:51;;;;;;;8.10;7.40;;;23.00;99.90;;;;;;4981449;28;20181;-70
2021/07/27 07:44:17;;;;;;;8.80;8.00;;;23.00;99.90;;;;;;4976745;28;20440;-70
2021/07/27 07:46:42;;;;;;;8.53;7.73;;;23.10;99.90;;;;;;4978628;28;20180;-70
2021/07/27 07:49:08;;;;;;;8.23;7.53;;;23.10;99.90;;;;;;4974449;28;20192;-70
2021/07/27 07:51:35;;;;;;;7.90;7.10;;;23.20;99.90;;;;;;4978452;28;20210;-69
2021/07/27 07:54:01;;;;;;;9.13;8.27;;;23.20;99.90;;;;;;4979990;28;20207;-70
2021/07/27 07:56:26;;;;;;;8.93;7.87;;;23.10;99.90;;;;;;4963361;28;20420;-70
2021/07/27 07:58:55;;;;;;;7.83;7.17;;;23.10;99.90;;;;;;4986158;28;20535;-71
2021/07/27 08:01:21;;;;;;;8.23;7.43;;;23.10;99.90;;;;;;4988510;28;20252;-70
2021/07/27 08:03:46;;;;;;;8.00;7.20;;;22.90;99.90;;;;;;4992231;28;20424;-69
2021/07/27 08:06:12;;;;;;;8.50;7.73;;;22.70;99.90;;;;;;4984894;28;20196;-69
2021/07/27 08:08:41;;;;;;;7.70;7.00;;;22.60;99.90;;;;;;4978395;28;20433;-70
2021/07/27 08:11:08;;;;;;;9.60;6.70;;;22.60;99.90;;;;;;4976689;28;20243;-68
2021/07/27 08:13:33;;;;;;;7.97;7.27;;;22.50;99.90;;;;;;4977412;28;20428;-71
2021/07/27 08:15:59;;;;;;;7.47;6.77;;;22.50;99.90;;;;;;4964126;28;20948;-69
2021/07/27 08:18:24;;;;;;;8.03;7.23;;;22.60;99.90;;;;;;4957248;29;20287;-68
2021/07/27 08:20:50;;;;;;;10.43;6.50;;;22.50;99.90;;;;;;4957493;29;20538;-70
2021/07/27 08:23:16;;;;;;;10.00;8.20;;;22.60;99.90;;;;;;4956608;28;20190;-69
2021/07/27 08:25:42;;;;;;;8.27;7.50;;;22.60;99.90;;;;;;4939907;29;20448;-69
2021/07/27 08:28:07;;;;;;;8.33;7.50;;;22.70;99.90;;;;;;4957459;28;20631;-70
2021/07/27 08:30:33;;;;;;;7.10;6.50;;;22.80;99.90;;;;;;4957157;29;20180;-69
2021/07/27 08:33:01;;;;;;;7.67;6.93;;;22.90;99.90;;;;;;4956543;28;20275;-70
2021/07/27 08:35:27;;;;;;;9.10;8.00;;;23.00;99.90;;;;;;4974362;28;20179;-70
2021/07/27 08:37:53;;;;;;;8.67;7.77;;;23.00;99.90;;;;;;4975570;28;20898;-69
2021/07/27 08:40:21;;;;;;;8.40;7.60;;;23.00;99.90;;;;;;4974102;28;20220;-70
2021/07/27 08:42:47;;;;;;;8.60;7.60;;;23.10;99.90;;;;;;4975568;28;20193;-71
2021/07/27 08:45:13;;;;;;;9.03;7.77;;;23.20;99.90;;;;;;4977037;28;20423;-69
2021/07/27 08:47:44;;;;;;;9.20;8.40;;;23.30;99.90;;;;;;4977398;28;20184;-69
2021/07/27 08:50:13;;;;;;;11.93;10.10;;;23.30;99.90;;;;;;4989661;28;20187;-73
2021/07/27 08:52:39;;;;;;;12.23;10.70;;;23.50;99.90;;;;;;4993737;28;20500;-73
2021/07/27 08:55:06;;;;;;;14.83;13.10;;;23.50;99.90;;;;;;4971658;28;20420;-71
2021/07/27 08:57:31;;;;;;;16.03;13.20;;;23.40;99.90;;;;;;4976401;28;20184;-72
2021/07/27 08:59:57;;;;;;;18.43;15.10;;;23.30;99.90;;;;;;4975219;28;20659;-73
2021/07/27 09:02:32;;;;;;;18.73;16.73;;;23.40;99.90;;;;;;4974371;28;20259;-74
2021/07/27 09:05:04;;;;;;;23.70;21.10;;;23.40;99.90;;;;;;4974712;28;20426;-71
2021/07/27 09:07:29;;;;;;;27.63;20.10;;;23.60;99.90;;;;;;4975652;28;20601;-70
2021/07/27 09:09:56;;;;;;;20.70;18.60;;;23.70;99.90;;;;;;4979136;28;20462;-70
2021/07/27 09:12:22;;;;;;;19.17;17.03;;;23.80;99.90;;;;;;4978814;28;20447;-73
2021/07/27 09:14:47;;;;;;;21.30;19.00;;;24.00;99.90;;;;;;4978637;28;20666;-70
2021/07/27 09:17:13;;;;;;;17.23;15.43;;;24.00;99.90;;;;;;4979261;28;20272;-71
2021/07/27 09:19:42;;;;;;;18.53;15.70;;;24.00;99.90;;;;;;4979230;28;20212;-71
2021/07/27 09:22:08;;;;;;;18.37;16.23;;;24.20;99.90;;;;;;4979890;28;20212;-71
2021/07/27 09:24:34;;;;;;;22.33;19.80;;;24.30;99.90;;;;;;4978333;28;20442;-71
2021/07/27 09:27:02;;;;;;;22.10;19.80;;;24.30;99.90;;;;;;4979713;28;20201;-70
2021/07/27 09:29:29;;;;;;;24.83;22.13;;;24.20;99.90;;;;;;4978629;28;20542;-71
2021/07/27 09:31:59;;;;;;;24.07;21.63;;;24.20;99.90;;;;;;4979797;28;20412;-71
2021/07/27 09:34:29;;;;;;;20.30;18.20;;;24.10;99.90;;;;;;4979527;28;20399;-70
2021/07/27 09:37:05;;;;;;;18.83;17.00;;;24.10;99.90;;;;;;4973245;28;20833;-71
2021/07/27 09:39:32;;;;;;;22.27;20.25;;;24.30;99.90;;;;;;4968365;28;20445;-70
2021/07/27 09:42:03;;;;;;;21.33;19.43;;;24.30;99.90;;;;;;4976902;28;20689;-71
2021/07/27 09:44:30;;;;;;;22.90;20.60;;;24.50;99.90;;;;;;4958708;28;20753;-71
2021/07/27 09:47:00;;;;;;;21.10;18.90;;;24.50;99.90;;;;;;4963146;28;20522;-71
2021/07/27 09:49:26;;;;;;;18.87;17.07;;;24.70;99.90;;;;;;4975229;28;20466;-71
2021/07/27 09:51:56;;;;;;;18.00;16.40;;;24.80;99.90;;;;;;4978300;28;20828;-72
2021/07/27 09:54:23;;;;;;;18.40;16.60;;;24.80;99.90;;;;;;4974358;28;20439;-72
2021/07/27 09:56:49;;;;;;;16.77;15.10;;;24.80;99.90;;;;;;4978077;28;20447;-71
2021/07/27 09:59:16;;;;;;;15.37;13.87;;;24.70;99.90;;;;;;4974473;28;20463;-71
2021/07/27 10:01:50;;;;;;;16.20;14.73;;;24.80;99.90;;;;;;4977045;28;20414;-71
2021/07/27 10:04:22;;;;;;;14.20;13.00;;;24.80;99.90;;;;;;4987137;28;20228;-71
2021/07/27 10:06:48;;;;;;;15.83;14.43;;;24.70;99.90;;;;;;5024870;28;20418;-71
2021/07/27 10:09:43;;;;;;;14.10;12.70;;;24.70;99.90;;;;;;5015467;28;21045;-71
2021/07/27 10:12:13;;;;;;;12.93;11.73;;;24.70;99.90;;;;;;4927642;29;20600;-71
2021/07/27 10:14:39;;;;;;;14.10;12.80;;;24.80;99.90;;;;;;4922871;29;20457;-70
2021/07/27 10:17:04;;;;;;;15.20;13.70;;;24.90;99.90;;;;;;4925892;29;20521;-72
2021/07/27 10:19:46;;;;;;;17.30;14.70;;;25.10;99.90;;;;;;4924661;29;20565;-71
2021/07/27 10:22:15;;;;;;;13.63;12.47;;;25.20;99.80;;;;;;4922668;29;20190;-71
2021/07/27 10:24:49;;;;;;;15.47;14.03;;;25.20;99.90;;;;;;4903579;29;20450;-70
2021/07/27 10:27:21;;;;;;;13.87;12.57;;;25.20;99.60;;;;;;4921358;29;20996;-69
2021/07/27 10:29:48;;;;;;;14.70;13.30;;;25.20;99.10;;;;;;4916003;29;20510;-71
2021/07/27 10:32:14;;;;;;;14.43;12.93;;;25.20;99.20;;;;;;4901468;29;20435;-71
2021/07/27 10:34:43;;;;;;;14.50;13.10;;;25.00;99.70;;;;;;4905169;29;20428;-72
2021/07/27 10:37:13;;;;;;;12.97;11.67;;;24.80;99.90;;;;;;4910234;29;20524;-73
2021/07/27 10:39:57;;;;;;;15.90;14.30;;;24.70;99.90;;;;;;4905214;29;20467;-73
2021/07/27 10:42:24;;;;;;;17.07;15.13;;;24.40;99.90;;;;;;4917991;29;20455;-73
2021/07/27 10:44:51;;;;;;;19.80;16.20;;;24.20;99.90;;;;;;4906058;29;20440;-72
2021/07/27 10:47:24;;;;;;;18.30;16.50;;;24.20;99.90;;;;;;4900829;29;20908;-76
2021/07/27 10:50:05;;;;;;;16.40;14.70;;;24.10;99.90;;;;;;4983178;28;20935;-72
2021/07/27 10:52:31;;;;;;;17.03;15.23;;;24.20;99.90;;;;;;4994817;28;20458;-72
2021/07/27 10:54:59;;;;;;;16.03;14.43;;;23.90;99.90;;;;;;5006681;28;20430;-71
2021/07/27 10:57:48;;;;;;;17.70;15.77;;;24.00;99.90;;;;;;5005630;28;20951;-70
2021/07/27 11:00:14;;;;;;;15.80;14.23;;;24.00;99.90;;;;;;4991542;28;20533;-71
2021/07/27 11:02:40;;;;;;;14.80;13.30;;;24.10;99.90;;;;;;5000134;28;20458;-73
2021/07/27 11:05:07;;;;;;;15.37;13.87;;;24.20;99.90;;;;;;5009202;28;20497;-73
2021/07/27 11:07:34;;;;;;;14.23;12.30;;;24.40;99.90;;;;;;4979826;28;20670;-72
2021/07/27 11:10:00;;;;;;;12.63;11.43;;;24.30;99.90;;;;;;5000935;28;20418;-70
2021/07/27 11:12:29;;;;;;;11.63;10.60;;;24.40;99.90;;;;;;5013227;28;20454;-73
2021/07/27 11:15:20;;;;;;;10.87;9.87;;;24.40;99.90;;;;;;5020019;28;20606;-71
2021/07/27 11:17:52;;;;;;;11.90;10.47;;;24.50;99.90;;;;;;4995862;28;20427;-71
2021/07/27 11:20:24;;;;;;;10.73;9.67;;;24.50;99.90;;;;;;4998705;28;20463;-73
2021/07/27 11:22:56;;;;;;;10.73;9.77;;;24.70;99.90;;;;;;4999628;28;20501;-72
2021/07/27 11:25:25;;;;;;;9.47;8.67;;;24.80;99.90;;;;;;4987772;28;20430;-70
2021/07/27 11:27:54;;;;;;;16.57;9.10;;;24.90;99.90;;;;;;4981239;28;20416;-73
2021/07/27 11:30:22;;;;;;;10.77;8.83;;;24.90;99.90;;;;;;4998317;28;20415;-72
2021/07/27 11:32:49;;;;;;;10.30;9.40;;;24.90;99.90;;;;;;4998659;28;20466;-71
2021/07/27 11:35:24;;;;;;;9.70;8.80;;;24.90;99.90;;;;;;5000888;28;20412;-71
2021/07/27 11:38:04;;;;;;;9.43;8.43;;;25.00;99.90;;;;;;5001553;28;20465;-70
2021/07/27 11:40:30;;;;;;;8.80;7.97;;;25.00;99.90;;;;;;4996600;28;20431;-73
2021/07/27 11:43:06;;;;;;;9.63;8.70;;;25.10;99.50;;;;;;4994975;28;20466;-72
2021/07/27 11:45:42;;;;;;;9.90;8.93;;;24.90;99.80;;;;;;4995276;28;20175;-72
2021/07/27 11:48:09;;;;;;;9.33;8.53;;;24.70;99.90;;;;;;4997918;28;20449;-72
2021/07/27 11:50:40;;;;;;;9.60;8.73;;;24.70;99.90;;;;;;5001923;28;20491;-72
2021/07/27 11:53:07;;;;;;;10.47;9.47;;;24.80;99.20;;;;;;4994094;28;20443;-72
2021/07/27 11:55:39;;;;;;;9.40;8.27;;;24.90;99.10;;;;;;4989657;28;20450;-72
2021/07/27 11:58:08;;;;;;;9.30;8.50;;;24.80;99.20;;;;;;4996230;28;20785;-71
2021/07/27 12:00:36;;;;;;;10.60;9.60;;;24.80;99.50;;;;;;4996507;28;20546;-72
2021/07/27 12:03:05;;;;;;;8.83;7.93;;;24.80;99.80;;;;;;5002809;28;20476;-72
2021/07/27 12:05:31;;;;;;;9.53;8.63;;;24.80;99.90;;;;;;4986069;28;20456;-72
2021/07/27 12:07:57;;;;;;;11.57;10.30;;;24.80;99.90;;;;;;4971907;28;20459;-72
2021/07/27 12:10:24;;;;;;;10.03;9.03;;;24.80;99.90;;;;;;4975493;28;20507;-72
2021/07/27 12:12:50;;;;;;;11.00;10.00;;;24.90;99.90;;;;;;4975172;28;20470;-71
2021/07/27 12:15:17;;;;;;;10.40;9.30;;;25.00;99.90;;;;;;4972524;28;20444;-71
2021/07/27 12:17:43;;;;;;;17.90;9.67;;;25.00;99.90;;;;;;4981071;28;20189;-74
2021/07/27 12:20:12;;;;;;;10.17;9.17;;;25.10;99.90;;;;;;4988152;28;20490;-71
2021/07/27 12:22:37;;;;;;;10.70;9.50;;;25.10;99.90;;;;;;4972421;28;20437;-71
2021/07/27 12:25:04;;;;;;;10.57;9.57;;;25.10;99.90;;;;;;4970814;28;20407;-71
2021/07/27 12:27:30;;;;;;;11.40;9.53;;;25.10;99.90;;;;;;4973078;28;20188;-71
2021/07/27 12:29:55;;;;;;;11.30;10.10;;;25.00;99.90;;;;;;4971984;28;20432;-71
2021/07/27 12:32:21;;;;;;;9.50;8.70;;;24.90;99.90;;;;;;4972344;28;20208;-72
2021/07/27 12:34:47;;;;;;;9.70;8.80;;;24.90;99.90;;;;;;4971433;28;20188;-70
2021/07/27 12:37:13;;;;;;;9.83;8.93;;;24.70;99.90;;;;;;4972221;28;20184;-71
2021/07/27 12:39:39;;;;;;;10.17;9.27;;;24.70;99.90;;;;;;4972472;28;20827;-71
2021/07/27 12:42:04;;;;;;;10.53;9.53;;;24.70;99.90;;;;;;4971465;28;20180;-71
2021/07/27 12:44:31;;;;;;;10.37;8.77;;;24.70;99.90;;;;;;4971466;28;20215;-71
2021/07/27 12:46:57;;;;;;;10.60;9.60;;;24.70;99.90;;;;;;4972866;28;20721;-71
2021/07/27 12:49:23;;;;;;;9.90;8.40;;;24.80;99.90;;;;;;4971566;28;20436;-71
2021/07/27 12:51:49;;;;;;;9.53;8.70;;;24.90;99.90;;;;;;4972579;28;20449;-71
2021/07/27 12:54:14;;;;;;;12.10;9.00;;;25.00;99.90;;;;;;4972687;28;20268;-71
2021/07/27 12:56:40;;;;;;;10.27;9.03;;;25.10;99.90;;;;;;4972394;28;20297;-70
2021/07/27 12:59:07;;;;;;;9.68;8.77;;;25.10;99.90;;;;;;4950684;29;20841;-72
2021/07/27 13:01:33;;;;;;;10.53;7.90;;;25.20;99.20;;;;;;4964926;28;20181;-70
2021/07/27 13:04:02;;;;;;;9.47;8.00;;;25.30;98.60;;;;;;4976250;28;20455;-71